sensor_id;sensor_type;location;lat;lon;timestamp;temperature;humidity
14144;DHT22;7152;48.348;10.980;2023-06-04T00:02:23;15.40;86.20
14144;DHT22;7152;48.348;10.980;2023-06-04T00:04:48;15.30;85.60
14144;DHT22;7152;48.348;10.980;2023-06-04T00:07:14;15.30;85.90
14144;DHT22;7152;48.348;10.980;2023-06-04T00:09:40;15.30;86.20
14144;DHT22;7152;48.348;10.980;2023-06-04T00:12:06;15.20;86.30
14144;DHT22;7152;48.348;10.980;2023-06-04T00:14:31;15.20;86.40
14144;DHT22;7152;48.348;10.980;2023-06-04T00:16:57;15.20;86.50
14144;DHT22;7152;48.348;10.980;2023-06-04T00:19:23;15.10;86.70
14144;DHT22;7152;48.348;10.980;2023-06-04T00:21:48;15.10;86.80
14144;DHT22;7152;48.348;10.980;2023-06-04T00:24:14;15.00;87.00
14144;DHT22;7152;48.348;10.980;2023-06-04T00:26:39;14.90;87.00
14144;DHT22;7152;48.348;10.980;2023-06-04T00:29:05;14.90;87.30
14144;DHT22;7152;48.348;10.980;2023-06-04T00:31:30;14.90;87.50
14144;DHT22;7152;48.348;10.980;2023-06-04T00:33:56;14.80;87.50
14144;DHT22;7152;48.348;10.980;2023-06-04T00:36:22;14.80;87.90
14144;DHT22;7152;48.348;10.980;2023-06-04T00:38:47;14.70;88.30
14144;DHT22;7152;48.348;10.980;2023-06-04T00:41:13;14.60;88.30
14144;DHT22;7152;48.348;10.980;2023-06-04T00:43:39;14.70;88.30
14144;DHT22;7152;48.348;10.980;2023-06-04T00:46:06;14.60;88.50
14144;DHT22;7152;48.348;10.980;2023-06-04T00:48:31;14.60;88.80
14144;DHT22;7152;48.348;10.980;2023-06-04T00:50:57;14.50;88.70
14144;DHT22;7152;48.348;10.980;2023-06-04T00:53:24;14.50;89.00
14144;DHT22;7152;48.348;10.980;2023-06-04T00:55:51;14.40;89.20
14144;DHT22;7152;48.348;10.980;2023-06-04T00:58:17;14.40;89.40
14144;DHT22;7152;48.348;10.980;2023-06-04T01:00:44;14.40;89.60
14144;DHT22;7152;48.348;10.980;2023-06-04T01:03:23;14.40;89.80
14144;DHT22;7152;48.348;10.980;2023-06-04T01:06:19;14.30;90.20
14144;DHT22;7152;48.348;10.980;2023-06-04T01:08:50;14.20;90.20
14144;DHT22;7152;48.348;10.980;2023-06-04T01:11:31;14.20;90.30
14144;DHT22;7152;48.348;10.980;2023-06-04T01:13:56;14.20;90.50
14144;DHT22;7152;48.348;10.980;2023-06-04T01:16:22;14.10;90.40
14144;DHT22;7152;48.348;10.980;2023-06-04T01:18:49;14.10;90.70
14144;DHT22;7152;48.348;10.980;2023-06-04T01:21:16;14.10;90.60
14144;DHT22;7152;48.348;10.980;2023-06-04T01:23:49;14.00;90.70
14144;DHT22;7152;48.348;10.980;2023-06-04T01:26:25;14.00;90.80
14144;DHT22;7152;48.348;10.980;2023-06-04T01:28:52;14.00;90.80
14144;DHT22;7152;48.348;10.980;2023-06-04T01:31:19;14.00;90.80
14144;DHT22;7152;48.348;10.980;2023-06-04T01:33:51;14.00;91.00
14144;DHT22;7152;48.348;10.980;2023-06-04T01:36:16;13.80;91.10
14144;DHT22;7152;48.348;10.980;2023-06-04T01:38:42;13.80;91.20
14144;DHT22;7152;48.348;10.980;2023-06-04T01:41:07;13.80;91.20
14144;DHT22;7152;48.348;10.980;2023-06-04T01:43:33;13.80;91.30
14144;DHT22;7152;48.348;10.980;2023-06-04T01:46:01;13.80;91.30
14144;DHT22;7152;48.348;10.980;2023-06-04T01:48:26;13.80;91.40
14144;DHT22;7152;48.348;10.980;2023-06-04T01:50:52;13.70;91.50
14144;DHT22;7152;48.348;10.980;2023-06-04T01:53:18;13.70;91.40
14144;DHT22;7152;48.348;10.980;2023-06-04T01:55:43;13.70;91.60
14144;DHT22;7152;48.348;10.980;2023-06-04T01:58:10;13.70;91.60
14144;DHT22;7152;48.348;10.980;2023-06-04T02:00:35;13.70;91.70
14144;DHT22;7152;48.348;10.980;2023-06-04T02:03:01;13.70;91.70
14144;DHT22;7152;48.348;10.980;2023-06-04T02:05:27;13.60;91.90
14144;DHT22;7152;48.348;10.980;2023-06-04T02:07:52;13.60;91.90
14144;DHT22;7152;48.348;10.980;2023-06-04T02:10:19;13.60;92.10
14144;DHT22;7152;48.348;10.980;2023-06-04T02:12:58;13.50;92.10
14144;DHT22;7152;48.348;10.980;2023-06-04T02:15:25;13.50;92.30
14144;DHT22;7152;48.348;10.980;2023-06-04T02:17:56;13.50;92.20
14144;DHT22;7152;48.348;10.980;2023-06-04T02:20:27;13.40;92.30
14144;DHT22;7152;48.348;10.980;2023-06-04T02:22:56;13.40;92.40
14144;DHT22;7152;48.348;10.980;2023-06-04T02:25:23;13.40;92.50
14144;DHT22;7152;48.348;10.980;2023-06-04T02:27:49;13.40;92.50
14144;DHT22;7152;48.348;10.980;2023-06-04T02:30:15;13.30;92.50
14144;DHT22;7152;48.348;10.980;2023-06-04T02:32:42;13.30;92.70
14144;DHT22;7152;48.348;10.980;2023-06-04T02:35:10;13.30;92.90
14144;DHT22;7152;48.348;10.980;2023-06-04T02:37:36;13.20;92.90
14144;DHT22;7152;48.348;10.980;2023-06-04T02:40:01;13.20;93.00
14144;DHT22;7152;48.348;10.980;2023-06-04T02:42:27;13.10;93.10
14144;DHT22;7152;48.348;10.980;2023-06-04T02:44:53;13.10;93.00
14144;DHT22;7152;48.348;10.980;2023-06-04T02:47:18;13.10;93.20
14144;DHT22;7152;48.348;10.980;2023-06-04T02:49:45;13.10;93.10
14144;DHT22;7152;48.348;10.980;2023-06-04T02:52:11;13.10;93.20
14144;DHT22;7152;48.348;10.980;2023-06-04T02:54:37;13.10;93.50
14144;DHT22;7152;48.348;10.980;2023-06-04T02:57:03;13.00;93.50
14144;DHT22;7152;48.348;10.980;2023-06-04T02:59:29;13.00;93.50
14144;DHT22;7152;48.348;10.980;2023-06-04T03:01:55;13.00;93.60
14144;DHT22;7152;48.348;10.980;2023-06-04T03:04:21;13.00;93.60
14144;DHT22;7152;48.348;10.980;2023-06-04T03:06:46;12.90;93.60
14144;DHT22;7152;48.348;10.980;2023-06-04T03:09:13;12.90;93.60
14144;DHT22;7152;48.348;10.980;2023-06-04T03:11:39;12.90;94.00
14144;DHT22;7152;48.348;10.980;2023-06-04T03:14:04;12.80;94.00
14144;DHT22;7152;48.348;10.980;2023-06-04T03:16:30;12.80;94.10
14144;DHT22;7152;48.348;10.980;2023-06-04T03:18:56;12.70;94.00
14144;DHT22;7152;48.348;10.980;2023-06-04T03:21:22;12.70;94.00
14144;DHT22;7152;48.348;10.980;2023-06-04T03:23:47;12.70;94.00
14144;DHT22;7152;48.348;10.980;2023-06-04T03:26:13;12.70;94.00
14144;DHT22;7152;48.348;10.980;2023-06-04T03:28:39;12.70;94.00
14144;DHT22;7152;48.348;10.980;2023-06-04T03:31:05;12.70;94.00
14144;DHT22;7152;48.348;10.980;2023-06-04T03:33:31;12.70;94.00
14144;DHT22;7152;48.348;10.980;2023-06-04T03:35:56;12.70;94.10
14144;DHT22;7152;48.348;10.980;2023-06-04T03:38:25;12.60;94.20
14144;DHT22;7152;48.348;10.980;2023-06-04T03:40:51;12.60;94.30
14144;DHT22;7152;48.348;10.980;2023-06-04T03:43:19;12.60;94.30
14144;DHT22;7152;48.348;10.980;2023-06-04T03:45:45;12.60;94.20
14144;DHT22;7152;48.348;10.980;2023-06-04T03:48:10;12.60;94.20
14144;DHT22;7152;48.348;10.980;2023-06-04T03:50:36;12.60;94.80
14144;DHT22;7152;48.348;10.980;2023-06-04T03:53:02;12.60;94.40
14144;DHT22;7152;48.348;10.980;2023-06-04T03:55:30;12.50;94.40
14144;DHT22;7152;48.348;10.980;2023-06-04T03:57:57;12.60;94.50
14144;DHT22;7152;48.348;10.980;2023-06-04T04:00:23;12.50;94.80
14144;DHT22;7152;48.348;10.980;2023-06-04T04:02:50;12.60;94.80
14144;DHT22;7152;48.348;10.980;2023-06-04T04:05:15;12.60;94.70
14144;DHT22;7152;48.348;10.980;2023-06-04T04:07:41;12.60;94.70
14144;DHT22;7152;48.348;10.980;2023-06-04T04:10:07;12.60;94.60
14144;DHT22;7152;48.348;10.980;2023-06-04T04:12:33;12.60;94.70
14144;DHT22;7152;48.348;10.980;2023-06-04T04:14:58;12.60;94.70
14144;DHT22;7152;48.348;10.980;2023-06-04T04:17:25;12.60;95.00
14144;DHT22;7152;48.348;10.980;2023-06-04T04:19:50;12.60;95.40
14144;DHT22;7152;48.348;10.980;2023-06-04T04:22:16;12.60;95.70
14144;DHT22;7152;48.348;10.980;2023-06-04T04:24:46;12.60;95.40
14144;DHT22;7152;48.348;10.980;2023-06-04T04:27:11;12.70;95.50
14144;DHT22;7152;48.348;10.980;2023-06-04T04:29:38;12.60;95.50
14144;DHT22;7152;48.348;10.980;2023-06-04T04:32:04;12.60;95.80
14144;DHT22;7152;48.348;10.980;2023-06-04T04:34:36;12.60;95.60
14144;DHT22;7152;48.348;10.980;2023-06-04T04:37:04;12.60;95.70
14144;DHT22;7152;48.348;10.980;2023-06-04T04:39:34;12.60;95.90
14144;DHT22;7152;48.348;10.980;2023-06-04T04:42:01;12.60;95.90
14144;DHT22;7152;48.348;10.980;2023-06-04T04:44:26;12.70;96.20
14144;DHT22;7152;48.348;10.980;2023-06-04T04:46:52;12.80;96.70
14144;DHT22;7152;48.348;10.980;2023-06-04T04:49:17;12.60;97.30
14144;DHT22;7152;48.348;10.980;2023-06-04T04:51:43;12.60;97.20
14144;DHT22;7152;48.348;10.980;2023-06-04T04:54:08;12.70;97.20
14144;DHT22;7152;48.348;10.980;2023-06-04T04:56:34;12.80;97.40
14144;DHT22;7152;48.348;10.980;2023-06-04T04:59:00;12.80;97.70
14144;DHT22;7152;48.348;10.980;2023-06-04T05:01:26;12.90;97.70
14144;DHT22;7152;48.348;10.980;2023-06-04T05:03:53;12.90;97.70
14144;DHT22;7152;48.348;10.980;2023-06-04T05:06:19;13.00;97.80
14144;DHT22;7152;48.348;10.980;2023-06-04T05:08:45;13.00;97.70
14144;DHT22;7152;48.348;10.980;2023-06-04T05:11:10;13.10;97.60
14144;DHT22;7152;48.348;10.980;2023-06-04T05:13:36;13.10;97.50
14144;DHT22;7152;48.348;10.980;2023-06-04T05:16:02;13.20;97.60
14144;DHT22;7152;48.348;10.980;2023-06-04T05:18:37;13.20;97.60
14144;DHT22;7152;48.348;10.980;2023-06-04T05:21:06;13.30;98.10
14144;DHT22;7152;48.348;10.980;2023-06-04T05:23:32;13.30;98.00
14144;DHT22;7152;48.348;10.980;2023-06-04T05:26:00;13.40;97.70
14144;DHT22;7152;48.348;10.980;2023-06-04T05:28:26;13.40;97.80
14144;DHT22;7152;48.348;10.980;2023-06-04T05:30:52;13.50;97.80
14144;DHT22;7152;48.348;10.980;2023-06-04T05:33:24;13.50;98.10
14144;DHT22;7152;48.348;10.980;2023-06-04T05:35:50;13.50;97.80
14144;DHT22;7152;48.348;10.980;2023-06-04T05:38:17;13.60;97.70
14144;DHT22;7152;48.348;10.980;2023-06-04T05:40:45;13.70;97.90
14144;DHT22;7152;48.348;10.980;2023-06-04T05:43:11;13.80;98.10
14144;DHT22;7152;48.348;10.980;2023-06-04T05:45:37;13.90;97.90
14144;DHT22;7152;48.348;10.980;2023-06-04T05:48:04;13.90;97.40
14144;DHT22;7152;48.348;10.980;2023-06-04T05:50:29;14.00;97.70
14144;DHT22;7152;48.348;10.980;2023-06-04T05:52:56;14.00;97.60
14144;DHT22;7152;48.348;10.980;2023-06-04T05:55:22;14.10;97.70
14144;DHT22;7152;48.348;10.980;2023-06-04T05:57:48;14.10;97.50
14144;DHT22;7152;48.348;10.980;2023-06-04T06:00:14;14.20;97.70
14144;DHT22;7152;48.348;10.980;2023-06-04T06:02:40;14.30;97.60
14144;DHT22;7152;48.348;10.980;2023-06-04T06:05:06;14.30;97.40
14144;DHT22;7152;48.348;10.980;2023-06-04T06:07:35;14.40;97.70
14144;DHT22;7152;48.348;10.980;2023-06-04T06:10:01;14.50;97.90
14144;DHT22;7152;48.348;10.980;2023-06-04T06:12:28;14.60;97.70
14144;DHT22;7152;48.348;10.980;2023-06-04T06:14:53;14.60;97.70
14144;DHT22;7152;48.348;10.980;2023-06-04T06:17:19;14.70;97.30
14144;DHT22;7152;48.348;10.980;2023-06-04T06:19:44;14.70;97.20
14144;DHT22;7152;48.348;10.980;2023-06-04T06:22:10;14.80;97.40
14144;DHT22;7152;48.348;10.980;2023-06-04T06:24:37;14.90;97.60
14144;DHT22;7152;48.348;10.980;2023-06-04T06:27:02;15.00;97.70
14144;DHT22;7152;48.348;10.980;2023-06-04T06:29:28;15.00;97.40
14144;DHT22;7152;48.348;10.980;2023-06-04T06:31:54;15.10;97.20
14144;DHT22;7152;48.348;10.980;2023-06-04T06:34:20;15.20;97.20
14144;DHT22;7152;48.348;10.980;2023-06-04T06:36:45;15.30;97.40
14144;DHT22;7152;48.348;10.980;2023-06-04T06:39:12;15.40;97.40
14144;DHT22;7152;48.348;10.980;2023-06-04T06:41:38;15.50;97.10
14144;DHT22;7152;48.348;10.980;2023-06-04T06:44:04;15.50;96.70
14144;DHT22;7152;48.348;10.980;2023-06-04T06:46:30;15.60;96.60
14144;DHT22;7152;48.348;10.980;2023-06-04T06:48:55;15.70;96.70
14144;DHT22;7152;48.348;10.980;2023-06-04T06:51:21;15.80;96.50
14144;DHT22;7152;48.348;10.980;2023-06-04T06:53:49;15.90;96.40
14144;DHT22;7152;48.348;10.980;2023-06-04T06:56:15;16.00;96.30
14144;DHT22;7152;48.348;10.980;2023-06-04T06:58:41;16.10;96.40
14144;DHT22;7152;48.348;10.980;2023-06-04T07:01:06;16.20;96.40
14144;DHT22;7152;48.348;10.980;2023-06-04T07:03:32;16.30;96.20
14144;DHT22;7152;48.348;10.980;2023-06-04T07:05:58;16.40;96.20
14144;DHT22;7152;48.348;10.980;2023-06-04T07:08:23;16.50;96.00
14144;DHT22;7152;48.348;10.980;2023-06-04T07:10:49;16.60;95.70
14144;DHT22;7152;48.348;10.980;2023-06-04T07:13:15;16.70;95.50
14144;DHT22;7152;48.348;10.980;2023-06-04T07:15:41;16.80;95.50
14144;DHT22;7152;48.348;10.980;2023-06-04T07:18:07;16.90;95.10
14144;DHT22;7152;48.348;10.980;2023-06-04T07:20:32;17.10;95.30
14144;DHT22;7152;48.348;10.980;2023-06-04T07:22:58;17.20;95.40
14144;DHT22;7152;48.348;10.980;2023-06-04T07:25:23;17.40;95.00
14144;DHT22;7152;48.348;10.980;2023-06-04T07:27:51;17.40;94.80
14144;DHT22;7152;48.348;10.980;2023-06-04T07:30:16;17.60;94.70
14144;DHT22;7152;48.348;10.980;2023-06-04T07:32:47;17.70;94.40
14144;DHT22;7152;48.348;10.980;2023-06-04T07:35:12;17.90;94.20
14144;DHT22;7152;48.348;10.980;2023-06-04T07:37:38;18.00;94.10
14144;DHT22;7152;48.348;10.980;2023-06-04T07:40:04;18.10;93.80
14144;DHT22;7152;48.348;10.980;2023-06-04T07:42:30;18.30;93.50
14144;DHT22;7152;48.348;10.980;2023-06-04T07:44:55;18.40;93.30
14144;DHT22;7152;48.348;10.980;2023-06-04T07:47:22;18.50;93.40
14144;DHT22;7152;48.348;10.980;2023-06-04T07:49:47;18.60;93.20
14144;DHT22;7152;48.348;10.980;2023-06-04T07:52:13;18.70;92.80
14144;DHT22;7152;48.348;10.980;2023-06-04T07:54:40;18.90;92.80
14144;DHT22;7152;48.348;10.980;2023-06-04T07:57:07;19.00;92.70
14144;DHT22;7152;48.348;10.980;2023-06-04T07:59:32;19.00;92.30
14144;DHT22;7152;48.348;10.980;2023-06-04T08:01:58;19.10;92.20
14144;DHT22;7152;48.348;10.980;2023-06-04T08:04:23;19.20;92.10
14144;DHT22;7152;48.348;10.980;2023-06-04T08:06:49;19.30;92.10
14144;DHT22;7152;48.348;10.980;2023-06-04T08:09:15;19.30;91.80
14144;DHT22;7152;48.348;10.980;2023-06-04T08:11:41;19.50;91.70
14144;DHT22;7152;48.348;10.980;2023-06-04T08:14:08;19.60;91.50
14144;DHT22;7152;48.348;10.980;2023-06-04T08:16:33;19.70;91.50
14144;DHT22;7152;48.348;10.980;2023-06-04T08:18:59;19.80;91.50
14144;DHT22;7152;48.348;10.980;2023-06-04T08:21:26;19.90;91.40
14144;DHT22;7152;48.348;10.980;2023-06-04T08:23:52;20.00;91.10
14144;DHT22;7152;48.348;10.980;2023-06-04T08:26:18;20.20;91.10
14144;DHT22;7152;48.348;10.980;2023-06-04T08:28:47;20.20;90.90
14144;DHT22;7152;48.348;10.980;2023-06-04T08:31:13;20.40;90.90
14144;DHT22;7152;48.348;10.980;2023-06-04T08:33:38;20.50;90.80
14144;DHT22;7152;48.348;10.980;2023-06-04T08:36:04;20.60;90.80
14144;DHT22;7152;48.348;10.980;2023-06-04T08:38:30;20.70;90.60
14144;DHT22;7152;48.348;10.980;2023-06-04T08:41:07;20.80;90.30
14144;DHT22;7152;48.348;10.980;2023-06-04T08:43:36;21.00;90.30
14144;DHT22;7152;48.348;10.980;2023-06-04T08:46:05;21.00;90.00
14144;DHT22;7152;48.348;10.980;2023-06-04T08:48:34;21.10;89.60
14144;DHT22;7152;48.348;10.980;2023-06-04T08:51:02;21.20;89.50
14144;DHT22;7152;48.348;10.980;2023-06-04T08:53:29;21.30;89.30
14144;DHT22;7152;48.348;10.980;2023-06-04T08:55:56;21.40;89.00
14144;DHT22;7152;48.348;10.980;2023-06-04T08:58:23;21.50;89.00
14144;DHT22;7152;48.348;10.980;2023-06-04T09:00:50;21.70;89.30
14144;DHT22;7152;48.348;10.980;2023-06-04T09:03:16;21.70;88.60
14144;DHT22;7152;48.348;10.980;2023-06-04T09:05:44;21.80;88.40
14144;DHT22;7152;48.348;10.980;2023-06-04T09:08:14;22.00;87.90
14144;DHT22;7152;48.348;10.980;2023-06-04T09:10:41;22.10;88.00
14144;DHT22;7152;48.348;10.980;2023-06-04T09:13:08;22.20;87.70
14144;DHT22;7152;48.348;10.980;2023-06-04T09:15:34;22.30;87.80
14144;DHT22;7152;48.348;10.980;2023-06-04T09:18:00;22.50;87.30
14144;DHT22;7152;48.348;10.980;2023-06-04T09:20:27;22.60;86.60
14144;DHT22;7152;48.348;10.980;2023-06-04T09:22:53;22.80;86.50
14144;DHT22;7152;48.348;10.980;2023-06-04T09:25:24;23.00;86.30
14144;DHT22;7152;48.348;10.980;2023-06-04T09:27:51;23.10;85.10
14144;DHT22;7152;48.348;10.980;2023-06-04T09:30:17;23.10;85.60
14144;DHT22;7152;48.348;10.980;2023-06-04T09:32:43;23.20;84.70
14144;DHT22;7152;48.348;10.980;2023-06-04T09:35:14;23.30;83.60
14144;DHT22;7152;48.348;10.980;2023-06-04T09:37:52;23.50;83.50
14144;DHT22;7152;48.348;10.980;2023-06-04T09:40:18;23.60;82.10
14144;DHT22;7152;48.348;10.980;2023-06-04T09:42:48;23.70;82.60
14144;DHT22;7152;48.348;10.980;2023-06-04T09:45:31;23.90;81.70
14144;DHT22;7152;48.348;10.980;2023-06-04T09:47:58;24.00;81.00
14144;DHT22;7152;48.348;10.980;2023-06-04T09:50:31;24.10;80.80
14144;DHT22;7152;48.348;10.980;2023-06-04T09:52:58;24.20;80.60
14144;DHT22;7152;48.348;10.980;2023-06-04T09:55:24;24.50;81.10
14144;DHT22;7152;48.348;10.980;2023-06-04T09:57:51;24.60;80.60
14144;DHT22;7152;48.348;10.980;2023-06-04T10:00:19;24.70;79.50
14144;DHT22;7152;48.348;10.980;2023-06-04T10:02:46;24.80;78.80
14144;DHT22;7152;48.348;10.980;2023-06-04T10:05:13;25.00;77.80
14144;DHT22;7152;48.348;10.980;2023-06-04T10:07:45;25.10;77.30
14144;DHT22;7152;48.348;10.980;2023-06-04T10:10:15;25.20;76.10
14144;DHT22;7152;48.348;10.980;2023-06-04T10:12:41;25.20;74.60
14144;DHT22;7152;48.348;10.980;2023-06-04T10:15:12;25.40;75.30
14144;DHT22;7152;48.348;10.980;2023-06-04T10:17:38;25.70;76.70
14144;DHT22;7152;48.348;10.980;2023-06-04T10:20:05;26.00;75.60
14144;DHT22;7152;48.348;10.980;2023-06-04T10:22:34;26.10;75.80
14144;DHT22;7152;48.348;10.980;2023-06-04T10:25:00;26.30;74.40
14144;DHT22;7152;48.348;10.980;2023-06-04T10:27:25;26.40;73.30
14144;DHT22;7152;48.348;10.980;2023-06-04T10:29:52;26.50;73.20
14144;DHT22;7152;48.348;10.980;2023-06-04T10:32:18;26.70;72.80
14144;DHT22;7152;48.348;10.980;2023-06-04T10:34:44;26.80;73.10
14144;DHT22;7152;48.348;10.980;2023-06-04T10:37:23;27.00;70.70
14144;DHT22;7152;48.348;10.980;2023-06-04T10:39:53;27.10;69.40
14144;DHT22;7152;48.348;10.980;2023-06-04T10:42:19;27.00;70.30
14144;DHT22;7152;48.348;10.980;2023-06-04T10:44:47;27.20;69.70
14144;DHT22;7152;48.348;10.980;2023-06-04T10:47:19;27.40;69.20
14144;DHT22;7152;48.348;10.980;2023-06-04T10:49:46;27.60;68.20
14144;DHT22;7152;48.348;10.980;2023-06-04T10:52:11;27.70;66.20
14144;DHT22;7152;48.348;10.980;2023-06-04T10:54:37;27.70;66.90
14144;DHT22;7152;48.348;10.980;2023-06-04T10:57:13;28.10;67.40
14144;DHT22;7152;48.348;10.980;2023-06-04T10:59:39;28.30;64.90
14144;DHT22;7152;48.348;10.980;2023-06-04T11:02:06;28.70;65.20
14144;DHT22;7152;48.348;10.980;2023-06-04T11:04:32;28.90;65.30
14144;DHT22;7152;48.348;10.980;2023-06-04T11:07:04;29.10;65.10
14144;DHT22;7152;48.348;10.980;2023-06-04T11:09:34;29.40;64.40
14144;DHT22;7152;48.348;10.980;2023-06-04T11:12:00;29.30;63.80
14144;DHT22;7152;48.348;10.980;2023-06-04T11:14:26;29.30;62.80
14144;DHT22;7152;48.348;10.980;2023-06-04T11:16:52;29.40;61.70
14144;DHT22;7152;48.348;10.980;2023-06-04T11:19:18;29.50;61.20
14144;DHT22;7152;48.348;10.980;2023-06-04T11:21:44;28.90;62.30
14144;DHT22;7152;48.348;10.980;2023-06-04T11:24:12;28.10;63.40
14144;DHT22;7152;48.348;10.980;2023-06-04T11:26:37;27.30;64.00
14144;DHT22;7152;48.348;10.980;2023-06-04T11:29:08;27.20;64.50
14144;DHT22;7152;48.348;10.980;2023-06-04T11:31:51;27.40;64.70
14144;DHT22;7152;48.348;10.980;2023-06-04T11:34:24;28.20;64.70
14144;DHT22;7152;48.348;10.980;2023-06-04T11:36:50;28.40;64.10
14144;DHT22;7152;48.348;10.980;2023-06-04T11:39:19;28.80;63.90
14144;DHT22;7152;48.348;10.980;2023-06-04T11:41:45;29.70;63.80
14144;DHT22;7152;48.348;10.980;2023-06-04T11:44:12;29.50;62.50
14144;DHT22;7152;48.348;10.980;2023-06-04T11:46:42;29.50;61.70
14144;DHT22;7152;48.348;10.980;2023-06-04T11:49:17;30.20;61.00
14144;DHT22;7152;48.348;10.980;2023-06-04T11:51:51;30.40;60.50
14144;DHT22;7152;48.348;10.980;2023-06-04T11:54:18;31.00;59.70
14144;DHT22;7152;48.348;10.980;2023-06-04T11:56:44;31.50;58.90
14144;DHT22;7152;48.348;10.980;2023-06-04T11:59:13;31.60;58.70
14144;DHT22;7152;48.348;10.980;2023-06-04T12:01:47;32.10;57.90
14144;DHT22;7152;48.348;10.980;2023-06-04T12:06:39;33.20;57.40
14144;DHT22;7152;48.348;10.980;2023-06-04T12:09:20;33.60;57.20
14144;DHT22;7152;48.348;10.980;2023-06-04T12:11:47;32.70;56.30
14144;DHT22;7152;48.348;10.980;2023-06-04T12:14:16;32.40;57.10
14144;DHT22;7152;48.348;10.980;2023-06-04T12:16:43;32.50;56.40
14144;DHT22;7152;48.348;10.980;2023-06-04T12:19:11;32.90;55.80
14144;DHT22;7152;48.348;10.980;2023-06-04T12:21:40;33.20;55.10
14144;DHT22;7152;48.348;10.980;2023-06-04T12:24:11;33.40;54.60
14144;DHT22;7152;48.348;10.980;2023-06-04T12:26:37;33.70;54.80
14144;DHT22;7152;48.348;10.980;2023-06-04T12:29:16;34.00;53.20
14144;DHT22;7152;48.348;10.980;2023-06-04T12:31:44;34.40;51.60
14144;DHT22;7152;48.348;10.980;2023-06-04T12:34:12;34.80;52.30
14144;DHT22;7152;48.348;10.980;2023-06-04T12:36:38;34.90;51.10
14144;DHT22;7152;48.348;10.980;2023-06-04T12:39:04;35.20;51.00
14144;DHT22;7152;48.348;10.980;2023-06-04T12:41:31;35.00;50.60
14144;DHT22;7152;48.348;10.980;2023-06-04T12:43:58;34.30;50.70
14144;DHT22;7152;48.348;10.980;2023-06-04T12:46:25;33.30;51.20
14144;DHT22;7152;48.348;10.980;2023-06-04T12:48:51;32.30;51.70
14144;DHT22;7152;48.348;10.980;2023-06-04T12:51:18;31.80;52.10
14144;DHT22;7152;48.348;10.980;2023-06-04T12:53:44;31.70;52.60
14144;DHT22;7152;48.348;10.980;2023-06-04T12:56:10;32.30;53.10
14144;DHT22;7152;48.348;10.980;2023-06-04T12:58:36;32.90;53.10
14144;DHT22;7152;48.348;10.980;2023-06-04T13:01:02;33.50;52.10
14144;DHT22;7152;48.348;10.980;2023-06-04T13:03:30;33.70;51.60
14144;DHT22;7152;48.348;10.980;2023-06-04T13:05:56;34.10;51.10
14144;DHT22;7152;48.348;10.980;2023-06-04T13:08:21;34.50;51.30
14144;DHT22;7152;48.348;10.980;2023-06-04T13:10:48;35.10;50.70
14144;DHT22;7152;48.348;10.980;2023-06-04T13:13:14;35.30;49.90
14144;DHT22;7152;48.348;10.980;2023-06-04T13:15:43;35.60;50.20
14144;DHT22;7152;48.348;10.980;2023-06-04T13:18:09;35.60;49.00
14144;DHT22;7152;48.348;10.980;2023-06-04T13:20:40;35.20;48.70
14144;DHT22;7152;48.348;10.980;2023-06-04T13:23:06;34.80;48.00
14144;DHT22;7152;48.348;10.980;2023-06-04T13:25:32;34.70;48.60
14144;DHT22;7152;48.348;10.980;2023-06-04T13:27:59;34.70;48.90
14144;DHT22;7152;48.348;10.980;2023-06-04T13:30:24;34.70;49.00
14144;DHT22;7152;48.348;10.980;2023-06-04T13:32:50;34.70;49.00
14144;DHT22;7152;48.348;10.980;2023-06-04T13:35:16;34.90;49.50
14144;DHT22;7152;48.348;10.980;2023-06-04T13:37:41;35.40;49.20
14144;DHT22;7152;48.348;10.980;2023-06-04T13:40:07;35.30;48.30
14144;DHT22;7152;48.348;10.980;2023-06-04T13:42:33;35.10;48.70
14144;DHT22;7152;48.348;10.980;2023-06-04T13:44:59;34.70;48.90
14144;DHT22;7152;48.348;10.980;2023-06-04T13:47:25;34.10;48.60
14144;DHT22;7152;48.348;10.980;2023-06-04T13:49:51;33.40;49.60
14144;DHT22;7152;48.348;10.980;2023-06-04T13:52:16;33.30;49.60
14144;DHT22;7152;48.348;10.980;2023-06-04T13:54:43;33.60;49.70
14144;DHT22;7152;48.348;10.980;2023-06-04T13:57:09;33.80;49.70
14144;DHT22;7152;48.348;10.980;2023-06-04T13:59:40;33.70;49.70
14144;DHT22;7152;48.348;10.980;2023-06-04T14:02:06;33.70;50.10
14144;DHT22;7152;48.348;10.980;2023-06-04T14:04:32;33.20;50.10
14144;DHT22;7152;48.348;10.980;2023-06-04T14:06:57;33.00;51.10
14144;DHT22;7152;48.348;10.980;2023-06-04T14:09:23;32.60;50.00
14144;DHT22;7152;48.348;10.980;2023-06-04T14:11:49;32.50;49.50
14144;DHT22;7152;48.348;10.980;2023-06-04T14:14:17;32.00;49.80
14144;DHT22;7152;48.348;10.980;2023-06-04T14:16:44;31.90;49.80
14144;DHT22;7152;48.348;10.980;2023-06-04T14:19:10;32.40;50.10
14144;DHT22;7152;48.348;10.980;2023-06-04T14:21:35;32.60;50.40
14144;DHT22;7152;48.348;10.980;2023-06-04T14:24:02;32.50;50.50
14144;DHT22;7152;48.348;10.980;2023-06-04T14:26:27;32.20;51.20
14144;DHT22;7152;48.348;10.980;2023-06-04T14:28:54;32.20;51.10
14144;DHT22;7152;48.348;10.980;2023-06-04T14:31:19;32.00;51.30
14144;DHT22;7152;48.348;10.980;2023-06-04T14:33:45;31.50;51.10
14144;DHT22;7152;48.348;10.980;2023-06-04T14:36:11;31.30;51.20
14144;DHT22;7152;48.348;10.980;2023-06-04T14:38:37;31.10;51.30
14144;DHT22;7152;48.348;10.980;2023-06-04T14:41:02;31.10;51.40
14144;DHT22;7152;48.348;10.980;2023-06-04T14:43:28;31.00;52.00
14144;DHT22;7152;48.348;10.980;2023-06-04T14:45:54;30.90;52.20
14144;DHT22;7152;48.348;10.980;2023-06-04T14:48:20;30.60;51.90
14144;DHT22;7152;48.348;10.980;2023-06-04T14:50:45;30.40;52.00
14144;DHT22;7152;48.348;10.980;2023-06-04T14:53:12;29.80;52.20
14144;DHT22;7152;48.348;10.980;2023-06-04T14:55:38;29.50;53.70
14144;DHT22;7152;48.348;10.980;2023-06-04T14:58:04;29.30;54.10
14144;DHT22;7152;48.348;10.980;2023-06-04T15:00:30;29.30;53.90
14144;DHT22;7152;48.348;10.980;2023-06-04T15:02:56;29.10;54.80
14144;DHT22;7152;48.348;10.980;2023-06-04T15:05:21;29.10;54.90
14144;DHT22;7152;48.348;10.980;2023-06-04T15:07:47;28.80;55.30
14144;DHT22;7152;48.348;10.980;2023-06-04T15:10:12;28.80;55.10
14144;DHT22;7152;48.348;10.980;2023-06-04T15:12:38;28.80;55.10
14144;DHT22;7152;48.348;10.980;2023-06-04T15:15:08;28.80;54.60
14144;DHT22;7152;48.348;10.980;2023-06-04T15:17:36;29.10;54.40
14144;DHT22;7152;48.348;10.980;2023-06-04T15:20:05;29.40;55.00
14144;DHT22;7152;48.348;10.980;2023-06-04T15:22:33;29.40;54.40
14144;DHT22;7152;48.348;10.980;2023-06-04T15:24:58;29.20;54.70
14144;DHT22;7152;48.348;10.980;2023-06-04T15:27:24;28.90;54.50
14144;DHT22;7152;48.348;10.980;2023-06-04T15:29:49;28.80;54.70
14144;DHT22;7152;48.348;10.980;2023-06-04T15:32:15;28.60;54.60